Time;durP1;ratioP1;P1;durP2;ratioP2;P2;SDS_P1;SDS_P2;PMS_P1;PMS_P2;Temp;Humidity;BMP_temperature;BMP_pressure;BME280_temperature;BME280_humidity;BME280_pressure;Samples;Min_cycle;Max_cycle;Signal;HPM_P1;HPM_P2
2021/06/03 00:02:06;;;;;;;4.82;3.60;;;;;;;;;;5058139;28;20029;-77
2021/06/03 00:04:32;;;;;;;3.83;3.20;;;;;;;;;;5041207;28;20032;-79
2021/06/03 00:06:58;;;;;;;4.40;3.78;;;;;;;;;;5053594;28;20053;-79
2021/06/03 00:09:25;;;;;;;3.13;2.80;;;;;;;;;;5038089;28;20048;-79
2021/06/03 00:11:51;;;;;;;4.05;3.20;;;;;;;;;;5061788;28;20086;-79
2021/06/03 00:14:18;;;;;;;3.75;3.17;;;;;;;;;;5064724;28;20110;-78
2021/06/03 00:16:44;;;;;;;3.55;3.20;;;;;;;;;;5057709;28;20033;-78
2021/06/03 00:19:10;;;;;;;2.97;2.67;;;;;;;;;;5073438;28;20025;-79
2021/06/03 00:21:38;;;;;;;3.75;3.10;;;;;;;;;;5058229;28;20103;-78
2021/06/03 00:24:05;;;;;;;5.55;3.42;;;;;;;;;;5057540;28;20032;-78
2021/06/03 00:26:32;;;;;;;5.72;3.58;;;;;;;;;;5057563;28;20032;-79
2021/06/03 00:28:58;;;;;;;6.43;3.92;;;;;;;;;;5057104;28;20029;-79
2021/06/03 00:31:24;;;;;;;4.80;3.63;;;;;;;;;;5073012;28;20040;-79
2021/06/03 00:33:50;;;;;;;6.00;2.97;;;;;;;;;;5057602;28;20021;-80
2021/06/03 00:36:16;;;;;;;4.30;2.85;;;;;;;;;;5058895;28;20106;-78
2021/06/03 00:38:42;;;;;;;4.15;3.00;;;;;;;;;;5075002;28;20036;-77
2021/06/03 00:41:08;;;;;;;4.00;3.00;;;;;;;;;;5072515;28;20087;-80
2021/06/03 00:43:35;;;;;;;4.50;2.97;;;;;;;;;;5048819;28;20452;-79
2021/06/03 00:46:01;;;;;;;4.60;3.20;;;;;;;;;;5057391;28;20049;-80
2021/06/03 00:48:27;;;;;;;4.93;3.13;;;;;;;;;;5057827;28;20078;-79
2021/06/03 00:50:54;;;;;;;4.75;3.60;;;;;;;;;;5073070;28;20480;-80
2021/06/03 00:53:21;;;;;;;4.00;3.45;;;;;;;;;;5073149;28;20025;-80
2021/06/03 00:55:52;;;;;;;4.75;3.05;;;;;;;;;;5057836;28;20083;-80
2021/06/03 00:58:18;;;;;;;4.50;3.63;;;;;;;;;;5074058;28;20473;-80
2021/06/03 01:00:45;;;;;;;5.40;3.10;;;;;;;;;;5057646;28;20021;-80
2021/06/03 01:03:11;;;;;;;3.58;2.97;;;;;;;;;;5057245;28;20041;-78
2021/06/03 01:05:42;;;;;;;3.72;3.17;;;;;;;;;;5065863;28;20052;-80
2021/06/03 01:08:16;;;;;;;4.50;2.70;;;;;;;;;;5079020;28;20040;-80
2021/06/03 01:10:42;;;;;;;4.93;2.97;;;;;;;;;;5074183;28;20033;-79
2021/06/03 01:13:14;;;;;;;4.80;2.90;;;;;;;;;;5048943;28;20021;-80
2021/06/03 01:15:42;;;;;;;3.95;3.42;;;;;;;;;;5057450;28;20034;-78
2021/06/03 01:18:09;;;;;;;3.45;2.60;;;;;;;;;;5073163;28;20042;-80
2021/06/03 01:20:35;;;;;;;3.95;3.35;;;;;;;;;;5058234;28;20403;-80
2021/06/03 01:23:09;;;;;;;4.18;3.13;;;;;;;;;;5072900;28;20079;-80
2021/06/03 01:25:35;;;;;;;3.50;2.75;;;;;;;;;;5073151;28;20128;-80
2021/06/03 01:28:02;;;;;;;2.97;2.55;;;;;;;;;;5057389;28;20025;-80
2021/06/03 01:30:30;;;;;;;3.13;2.25;;;;;;;;;;5057540;28;20032;-80
2021/06/03 01:32:59;;;;;;;2.95;2.60;;;;;;;;;;5072224;28;20032;-80
2021/06/03 01:35:27;;;;;;;2.97;2.45;;;;;;;;;;5072383;28;20040;-80
2021/06/03 01:37:53;;;;;;;3.95;2.80;;;;;;;;;;5057169;28;20052;-80
2021/06/03 01:40:21;;;;;;;3.85;2.60;;;;;;;;;;5057347;28;20111;-80
2021/06/03 01:42:47;;;;;;;2.67;2.22;;;;;;;;;;5049561;28;20061;-79
2021/06/03 01:45:14;;;;;;;2.67;2.47;;;;;;;;;;5071766;28;20029;-80
2021/06/03 01:47:41;;;;;;;2.83;2.53;;;;;;;;;;5056205;28;20082;-80
2021/06/03 01:50:08;;;;;;;2.88;2.55;;;;;;;;;;5056698;28;20029;-79
2021/06/03 01:52:35;;;;;;;4.03;2.80;;;;;;;;;;5058070;28;20489;-80
2021/06/03 01:55:01;;;;;;;3.40;2.13;;;;;;;;;;5064529;28;20029;-79
2021/06/03 01:57:27;;;;;;;1.88;1.70;;;;;;;;;;5063544;28;20052;-79
2021/06/03 01:59:53;;;;;;;4.28;3.00;;;;;;;;;;5057238;28;20025;-80
2021/06/03 02:02:19;;;;;;;3.08;2.53;;;;;;;;;;5057123;28;20385;-80
2021/06/03 02:04:46;;;;;;;3.78;2.65;;;;;;;;;;5056999;28;20033;-80
2021/06/03 02:07:12;;;;;;;3.78;3.00;;;;;;;;;;5056848;28;20031;-80
2021/06/03 02:09:38;;;;;;;2.92;2.60;;;;;;;;;;5071297;28;20028;-81
2021/06/03 02:12:07;;;;;;;4.72;2.70;;;;;;;;;;5069379;28;20131;-79
2021/06/03 02:14:35;;;;;;;4.22;2.70;;;;;;;;;;5064890;28;20087;-80
2021/06/03 02:17:11;;;;;;;2.42;2.22;;;;;;;;;;5057252;28;20389;-79
2021/06/03 02:19:48;;;;;;;3.72;2.30;;;;;;;;;;5075469;28;20552;-81
2021/06/03 02:22:14;;;;;;;2.63;2.28;;;;;;;;;;5059859;28;20025;-77
2021/06/03 02:24:41;;;;;;;2.78;2.13;;;;;;;;;;5075280;28;20031;-79
2021/06/03 02:27:07;;;;;;;2.55;2.30;;;;;;;;;;5060731;28;20021;-79
2021/06/03 02:29:34;;;;;;;3.72;2.45;;;;;;;;;;5059841;28;20032;-79
2021/06/03 02:32:00;;;;;;;4.90;2.72;;;;;;;;;;5075400;28;20025;-79
2021/06/03 02:34:26;;;;;;;4.80;3.10;;;;;;;;;;5060722;28;20025;-78
2021/06/03 02:36:52;;;;;;;2.53;2.17;;;;;;;;;;5060997;28;20033;-78
2021/06/03 02:39:18;;;;;;;4.50;2.80;;;;;;;;;;5059967;28;20520;-79
2021/06/03 02:41:45;;;;;;;3.88;3.13;;;;;;;;;;5059452;28;20028;-78
2021/06/03 02:44:11;;;;;;;2.80;2.40;;;;;;;;;;5052196;28;20029;-80
2021/06/03 02:46:37;;;;;;;2.85;2.22;;;;;;;;;;5060557;28;20025;-80
2021/06/03 02:49:04;;;;;;;4.20;2.45;;;;;;;;;;5060111;28;20394;-80
2021/06/03 02:51:30;;;;;;;4.03;2.33;;;;;;;;;;5059938;28;20025;-78
2021/06/03 02:53:56;;;;;;;3.33;2.85;;;;;;;;;;5059039;28;20025;-79
2021/06/03 02:56:22;;;;;;;4.80;2.83;;;;;;;;;;5059047;28;20098;-78
2021/06/03 02:58:48;;;;;;;3.03;2.45;;;;;;;;;;5059993;28;20107;-78
2021/06/03 03:01:14;;;;;;;2.88;2.33;;;;;;;;;;5060679;28;20404;-79
2021/06/03 03:03:41;;;;;;;2.72;2.53;;;;;;;;;;5059423;28;20021;-79
2021/06/03 03:06:07;;;;;;;6.72;2.70;;;;;;;;;;5074858;28;20071;-79
2021/06/03 03:08:33;;;;;;;2.60;2.25;;;;;;;;;;5058863;28;20080;-79
2021/06/03 03:11:00;;;;;;;3.70;2.53;;;;;;;;;;5058917;28;20029;-80
2021/06/03 03:13:27;;;;;;;3.75;2.55;;;;;;;;;;5059390;28;20461;-80
2021/06/03 03:15:53;;;;;;;3.08;2.60;;;;;;;;;;5075024;28;20025;-80
2021/06/03 03:18:19;;;;;;;2.80;2.50;;;;;;;;;;5074989;28;20047;-80
2021/06/03 03:20:45;;;;;;;2.45;2.25;;;;;;;;;;5061254;28;20021;-80
2021/06/03 03:23:12;;;;;;;2.53;2.33;;;;;;;;;;5059864;28;20492;-79
2021/06/03 03:25:39;;;;;;;2.90;2.40;;;;;;;;;;5058947;28;20025;-78
2021/06/03 03:28:05;;;;;;;2.53;2.33;;;;;;;;;;5058574;28;20417;-80
2021/06/03 03:30:32;;;;;;;2.90;2.45;;;;;;;;;;5058719;28;20024;-80
2021/06/03 03:32:58;;;;;;;2.40;2.20;;;;;;;;;;5058652;28;20516;-80
2021/06/03 03:35:25;;;;;;;2.45;2.25;;;;;;;;;;5058925;28;20056;-79
2021/06/03 03:37:51;;;;;;;2.85;2.35;;;;;;;;;;5073809;28;20031;-80
2021/06/03 03:40:18;;;;;;;2.70;2.20;;;;;;;;;;5058471;28;20120;-78
2021/06/03 03:42:45;;;;;;;2.22;2.00;;;;;;;;;;5050347;28;20148;-80
2021/06/03 03:45:12;;;;;;;3.38;2.10;;;;;;;;;;5057112;28;20036;-79
2021/06/03 03:47:38;;;;;;;2.55;2.35;;;;;;;;;;5058999;28;20045;-79
2021/06/03 03:50:05;;;;;;;3.47;2.92;;;;;;;;;;5060310;28;20049;-77
2021/06/03 03:52:31;;;;;;;3.25;2.53;;;;;;;;;;5061212;28;20393;-78
2021/06/03 03:54:59;;;;;;;2.70;2.38;;;;;;;;;;5063813;28;20025;-80
2021/06/03 03:57:25;;;;;;;3.65;2.33;;;;;;;;;;5064093;28;20394;-78
2021/06/03 03:59:51;;;;;;;2.30;1.75;;;;;;;;;;5084256;28;20021;-78
2021/06/03 04:02:18;;;;;;;2.72;2.53;;;;;;;;;;5078349;28;20052;-79
2021/06/03 04:04:44;;;;;;;5.05;2.63;;;;;;;;;;5058570;28;20092;-79
2021/06/03 04:07:10;;;;;;;3.40;2.33;;;;;;;;;;5058288;28;20397;-77
2021/06/03 04:09:36;;;;;;;4.25;2.35;;;;;;;;;;5072811;28;20041;-79
2021/06/03 04:12:02;;;;;;;2.22;1.73;;;;;;;;;;5056239;28;20020;-79
2021/06/03 04:14:28;;;;;;;4.90;2.88;;;;;;;;;;5050851;28;20029;-79
2021/06/03 04:16:54;;;;;;;2.63;2.42;;;;;;;;;;5077011;28;20050;-79
2021/06/03 04:19:20;;;;;;;2.55;2.25;;;;;;;;;;5064423;28;20032;-80
2021/06/03 04:21:47;;;;;;;2.75;2.55;;;;;;;;;;5074985;28;20430;-80
2021/06/03 04:24:13;;;;;;;1.77;1.63;;;;;;;;;;5058884;28;20092;-80
2021/06/03 04:26:39;;;;;;;1.98;1.77;;;;;;;;;;5074361;28;20478;-79
2021/06/03 04:29:05;;;;;;;2.25;2.05;;;;;;;;;;5058575;28;20099;-80
2021/06/03 04:31:32;;;;;;;2.58;2.33;;;;;;;;;;5061047;28;20040;-81
2021/06/03 04:33:58;;;;;;;1.70;1.60;;;;;;;;;;5078599;28;20094;-81
2021/06/03 04:36:24;;;;;;;1.95;1.80;;;;;;;;;;5078266;28;20052;-80
2021/06/03 04:38:50;;;;;;;2.33;2.13;;;;;;;;;;5063078;28;20109;-81
2021/06/03 04:41:16;;;;;;;2.72;2.53;;;;;;;;;;5063378;28;20028;-79
2021/06/03 04:43:43;;;;;;;2.38;2.17;;;;;;;;;;5058417;28;20031;-79
2021/06/03 04:46:09;;;;;;;2.83;2.63;;;;;;;;;;5066936;28;20086;-79
2021/06/03 04:48:36;;;;;;;4.25;2.42;;;;;;;;;;5064791;28;20036;-78
2021/06/03 04:51:02;;;;;;;2.55;2.35;;;;;;;;;;5062595;28;20025;-79
2021/06/03 04:53:32;;;;;;;2.33;2.13;;;;;;;;;;5080421;28;20035;-80
2021/06/03 04:55:58;;;;;;;2.45;2.10;;;;;;;;;;5060183;28;20026;-81
2021/06/03 04:58:24;;;;;;;2.90;2.47;;;;;;;;;;5058559;28;20139;-79
2021/06/03 05:00:50;;;;;;;2.95;2.25;;;;;;;;;;5072893;28;20507;-81
2021/06/03 05:03:17;;;;;;;2.70;2.50;;;;;;;;;;5057926;28;20132;-79
2021/06/03 05:05:44;;;;;;;5.03;2.38;;;;;;;;;;5056651;28;20017;-79
2021/06/03 05:08:10;;;;;;;2.90;2.60;;;;;;;;;;5064197;28;20047;-78
2021/06/03 05:10:36;;;;;;;2.92;1.92;;;;;;;;;;5063333;28;20025;-79
2021/06/03 05:13:03;;;;;;;3.03;2.58;;;;;;;;;;5047082;28;20100;-78
2021/06/03 05:15:29;;;;;;;2.60;2.33;;;;;;;;;;5055671;28;20029;-78
2021/06/03 05:17:56;;;;;;;1.83;1.67;;;;;;;;;;5071709;28;20189;-79
2021/06/03 05:20:25;;;;;;;2.70;2.00;;;;;;;;;;5057274;28;20035;-79
2021/06/03 05:22:52;;;;;;;2.17;1.98;;;;;;;;;;5057165;28;20029;-79
2021/06/03 05:25:19;;;;;;;2.17;1.92;;;;;;;;;;5059038;28;20052;-78
2021/06/03 05:27:46;;;;;;;2.70;2.30;;;;;;;;;;5066949;28;20033;-78
2021/06/03 05:30:13;;;;;;;1.90;1.80;;;;;;;;;;5060190;28;20021;-77
2021/06/03 05:32:39;;;;;;;1.60;1.50;;;;;;;;;;5059988;28;20040;-78
2021/06/03 05:35:06;;;;;;;2.63;1.88;;;;;;;;;;5060104;28;20108;-79
2021/06/03 05:37:32;;;;;;;2.25;2.03;;;;;;;;;;5060261;28;20029;-78
2021/06/03 05:39:59;;;;;;;2.08;1.90;;;;;;;;;;5059766;28;20068;-78
2021/06/03 05:42:26;;;;;;;1.60;1.50;;;;;;;;;;5055311;28;20045;-77
2021/06/03 05:44:52;;;;;;;1.98;1.80;;;;;;;;;;5073162;28;20032;-78
2021/06/03 05:47:18;;;;;;;1.70;1.60;;;;;;;;;;5064052;28;20025;-78
2021/06/03 05:49:44;;;;;;;1.60;1.50;;;;;;;;;;5079155;28;20024;-79
2021/06/03 05:52:10;;;;;;;1.55;1.40;;;;;;;;;;5063162;28;20029;-78
2021/06/03 05:54:38;;;;;;;1.92;1.70;;;;;;;;;;5063532;28;20027;-78
2021/06/03 05:57:04;;;;;;;1.90;1.60;;;;;;;;;;5076518;28;20063;-79
2021/06/03 05:59:30;;;;;;;1.80;1.70;;;;;;;;;;5062416;28;20114;-79
2021/06/03 06:02:03;;;;;;;1.35;1.25;;;;;;;;;;5062152;28;20021;-79
2021/06/03 06:06:55;;;;;;;1.67;1.58;;;;;;;;;;5062440;28;20055;-78
2021/06/03 06:09:21;;;;;;;1.70;1.60;;;;;;;;;;5061470;28;20111;-79
2021/06/03 06:11:47;;;;;;;1.83;1.73;;;;;;;;;;5058461;28;20064;-78
2021/06/03 06:14:14;;;;;;;2.05;1.85;;;;;;;;;;5041930;28;20037;-78
2021/06/03 06:16:40;;;;;;;1.70;1.60;;;;;;;;;;5041981;28;20029;-78
2021/06/03 06:19:07;;;;;;;1.67;1.58;;;;;;;;;;5039115;28;20128;-79
2021/06/03 06:21:33;;;;;;;1.90;1.67;;;;;;;;;;5053749;28;20032;-79
2021/06/03 06:23:59;;;;;;;1.40;1.40;;;;;;;;;;5036887;28;20021;-80
2021/06/03 06:26:26;;;;;;;1.90;1.80;;;;;;;;;;5037996;28;20429;-80
2021/06/03 06:28:53;;;;;;;1.85;1.75;;;;;;;;;;5054499;28;20095;-79
2021/06/03 06:31:19;;;;;;;1.98;1.88;;;;;;;;;;5053642;28;20388;-79
2021/06/03 06:33:46;;;;;;;1.98;1.88;;;;;;;;;;5036424;28;20026;-78
2021/06/03 06:36:13;;;;;;;1.58;1.58;;;;;;;;;;5037878;28;20107;-79
2021/06/03 06:38:40;;;;;;;1.65;1.58;;;;;;;;;;5039497;28;20409;-79
2021/06/03 06:41:07;;;;;;;1.70;1.60;;;;;;;;;;5053785;28;20018;-78
2021/06/03 06:43:36;;;;;;;2.50;1.65;;;;;;;;;;5048517;28;20392;-77
2021/06/03 06:46:03;;;;;;;1.20;1.20;;;;;;;;;;5060435;28;20075;-79
2021/06/03 06:48:29;;;;;;;1.20;1.20;;;;;;;;;;5062431;28;20048;-79
2021/06/03 06:50:55;;;;;;;2.17;1.98;;;;;;;;;;5056982;28;20032;-79
2021/06/03 06:53:22;;;;;;;1.85;1.75;;;;;;;;;;5073537;28;20070;-78
2021/06/03 06:55:48;;;;;;;1.67;1.58;;;;;;;;;;5077216;28;20085;-78
2021/06/03 06:58:14;;;;;;;2.13;1.55;;;;;;;;;;5061387;28;20053;-78
2021/06/03 07:00:41;;;;;;;1.63;1.52;;;;;;;;;;5076686;28;20519;-79
2021/06/03 07:03:09;;;;;;;2.53;1.77;;;;;;;;;;5060684;28;20025;-80
2021/06/03 07:05:36;;;;;;;2.63;2.30;;;;;;;;;;5077477;28;20028;-79
2021/06/03 07:08:03;;;;;;;1.48;1.45;;;;;;;;;;5060623;28;20028;-79
2021/06/03 07:10:29;;;;;;;1.70;1.60;;;;;;;;;;5085018;22;20033;-78
2021/06/03 07:12:55;;;;;;;1.88;1.77;;;;;;;;;;5036238;28;20061;-79
2021/06/03 07:15:21;;;;;;;4.50;2.08;;;;;;;;;;5019762;28;20026;-78
2021/06/03 07:17:47;;;;;;;1.60;1.50;;;;;;;;;;5018066;28;20034;-78
2021/06/03 07:20:15;;;;;;;1.83;1.73;;;;;;;;;;5020498;28;20014;-77
2021/06/03 07:22:43;;;;;;;2.40;1.58;;;;;;;;;;5018535;28;20028;-75
2021/06/03 07:25:09;;;;;;;1.70;1.60;;;;;;;;;;5017142;28;20413;-77
2021/06/03 07:27:36;;;;;;;2.53;1.95;;;;;;;;;;5018903;28;20072;-77
2021/06/03 07:30:03;;;;;;;1.92;1.77;;;;;;;;;;5015219;28;20156;-78
2021/06/03 07:32:30;;;;;;;4.75;2.30;;;;;;;;;;5015969;28;20529;-78
2021/06/03 07:34:56;;;;;;;3.83;1.73;;;;;;;;;;5017075;28;20029;-79
2021/06/03 07:37:22;;;;;;;3.95;2.22;;;;;;;;;;5016685;28;20034;-78
2021/06/03 07:39:58;;;;;;;2.53;2.17;;;;;;;;;;5017096;28;20030;-82
2021/06/03 07:42:24;;;;;;;2.00;1.80;;;;;;;;;;5015533;28;20447;-79
2021/06/03 07:44:50;;;;;;;3.05;1.90;;;;;;;;;;5016501;28;20026;-77
2021/06/03 07:47:17;;;;;;;2.28;2.08;;;;;;;;;;5015877;28;20025;-78
2021/06/03 07:49:43;;;;;;;1.83;1.73;;;;;;;;;;5016191;28;20128;-78
2021/06/03 07:52:09;;;;;;;2.63;1.80;;;;;;;;;;5017284;28;20133;-79
2021/06/03 07:54:37;;;;;;;3.30;2.30;;;;;;;;;;5017044;28;20061;-78
2021/06/03 07:57:04;;;;;;;2.63;2.42;;;;;;;;;;5015896;28;20594;-79
2021/06/03 07:59:30;;;;;;;2.28;2.05;;;;;;;;;;5016067;28;20030;-77
2021/06/03 08:01:56;;;;;;;2.03;1.88;;;;;;;;;;5015595;28;20052;-78
2021/06/03 08:04:22;;;;;;;2.05;1.85;;;;;;;;;;5015352;28;20026;-78
2021/06/03 08:06:48;;;;;;;1.80;1.70;;;;;;;;;;5015847;28;20076;-77
2021/06/03 08:09:15;;;;;;;3.70;2.33;;;;;;;;;;5016178;28;20068;-77
2021/06/03 08:11:43;;;;;;;3.97;2.30;;;;;;;;;;5017405;28;20080;-76
2021/06/03 08:14:09;;;;;;;2.88;1.88;;;;;;;;;;5017017;28;20018;-78
2021/06/03 08:16:35;;;;;;;2.58;2.00;;;;;;;;;;5026357;28;20049;-78
2021/06/03 08:19:01;;;;;;;2.45;1.98;;;;;;;;;;5033011;28;20030;-78
2021/06/03 08:21:27;;;;;;;2.60;2.30;;;;;;;;;;5032715;28;20439;-77
2021/06/03 08:23:55;;;;;;;2.95;2.13;;;;;;;;;;5031903;28;20022;-77
2021/06/03 08:26:21;;;;;;;1.83;1.73;;;;;;;;;;5020084;28;20364;-77
2021/06/03 08:28:47;;;;;;;2.30;2.10;;;;;;;;;;5019273;28;20076;-78
2021/06/03 08:31:13;;;;;;;3.75;2.28;;;;;;;;;;5016853;28;20034;-78
2021/06/03 08:33:39;;;;;;;3.10;2.70;;;;;;;;;;5016758;28;20142;-79
2021/06/03 08:36:05;;;;;;;2.83;2.20;;;;;;;;;;5016600;28;20449;-78
2021/06/03 08:38:31;;;;;;;4.35;2.97;;;;;;;;;;5018063;28;20041;-78
2021/06/03 08:40:59;;;;;;;3.40;2.58;;;;;;;;;;5018152;28;20048;-77
2021/06/03 08:43:29;;;;;;;2.08;1.98;;;;;;;;;;5010093;28;20014;-78
2021/06/03 08:45:56;;;;;;;3.25;2.20;;;;;;;;;;5015981;28;20144;-78
2021/06/03 08:48:22;;;;;;;2.22;2.00;;;;;;;;;;5014360;28;20040;-78
2021/06/03 08:50:51;;;;;;;1.70;1.60;;;;;;;;;;5017594;28;20093;-78
2021/06/03 08:53:17;;;;;;;2.08;1.98;;;;;;;;;;5014316;28;20092;-77
2021/06/03 08:58:28;;;;;;;2.30;1.88;;;;;;;;;;5013991;28;20402;-78
2021/06/03 09:00:56;;;;;;;3.30;1.80;;;;;;;;;;5016158;28;20105;-77
2021/06/03 09:03:23;;;;;;;3.80;2.20;;;;;;;;;;5015977;28;20029;-78
2021/06/03 09:05:50;;;;;;;3.20;2.25;;;;;;;;;;5015837;28;20018;-78
2021/06/03 09:08:19;;;;;;;4.25;2.83;;;;;;;;;;5015879;28;20401;-78
2021/06/03 09:10:46;;;;;;;2.17;2.08;;;;;;;;;;5016304;28;20061;-78
2021/06/03 09:13:14;;;;;;;2.53;2.30;;;;;;;;;;5000135;28;20064;-79
2021/06/03 09:15:41;;;;;;;2.20;2.00;;;;;;;;;;5016545;28;20029;-78
2021/06/03 09:18:09;;;;;;;2.95;2.05;;;;;;;;;;5015465;28;20032;-78
2021/06/03 09:20:36;;;;;;;2.63;2.13;;;;;;;;;;5015711;28;20228;-78
2021/06/03 09:23:02;;;;;;;1.88;1.77;;;;;;;;;;5015131;28;20014;-78
2021/06/03 09:25:31;;;;;;;6.45;2.47;;;;;;;;;;5012584;28;20022;-78
2021/06/03 09:28:36;;;;;;;2.33;2.13;;;;;;;;;;5015365;28;20052;-79
2021/06/03 09:31:10;;;;;;;2.53;2.33;;;;;;;;;;4993122;28;20030;-79
2021/06/03 09:33:36;;;;;;;2.45;2.20;;;;;;;;;;4999394;28;20073;-77
2021/06/03 09:36:03;;;;;;;4.47;2.40;;;;;;;;;;4994927;28;20038;-77
2021/06/03 09:38:29;;;;;;;2.75;2.55;;;;;;;;;;5015213;28;20360;-78
2021/06/03 09:40:55;;;;;;;2.60;2.40;;;;;;;;;;5023572;28;20026;-77
2021/06/03 09:43:22;;;;;;;5.05;2.45;;;;;;;;;;5018386;28;20025;-79
2021/06/03 09:45:54;;;;;;;2.47;2.25;;;;;;;;;;5013839;28;20026;-80
2021/06/03 09:48:39;;;;;;;2.88;2.20;;;;;;;;;;5014347;28;20026;-80
2021/06/03 09:51:20;;;;;;;2.40;2.20;;;;;;;;;;5015777;28;20317;-78
2021/06/03 09:53:50;;;;;;;4.38;2.50;;;;;;;;;;5022744;28;20022;-78
2021/06/03 09:56:24;;;;;;;2.38;2.20;;;;;;;;;;5027513;28;20178;-77
2021/06/03 09:58:50;;;;;;;2.55;2.35;;;;;;;;;;5019620;28;20022;-77
2021/06/03 10:01:36;;;;;;;3.65;2.33;;;;;;;;;;5026338;28;20104;-78
2021/06/03 10:04:03;;;;;;;2.80;2.50;;;;;;;;;;5023234;28;20024;-78
2021/06/03 10:06:29;;;;;;;2.70;2.28;;;;;;;;;;5032592;28;20057;-77
2021/06/03 10:08:56;;;;;;;2.75;2.47;;;;;;;;;;5033868;28;20033;-77
2021/06/03 10:11:41;;;;;;;2.60;2.40;;;;;;;;;;5032555;28;20418;-78
2021/06/03 10:14:08;;;;;;;1.80;1.70;;;;;;;;;;5034052;28;20082;-78
2021/06/03 10:16:34;;;;;;;2.15;1.95;;;;;;;;;;5033925;28;20109;-78
2021/06/03 10:19:17;;;;;;;4.93;2.85;;;;;;;;;;5034097;28;20036;-78
2021/06/03 10:21:43;;;;;;;3.08;2.58;;;;;;;;;;5035366;28;20101;-78
2021/06/03 10:24:10;;;;;;;4.35;2.70;;;;;;;;;;5034783;28;20078;-79
2021/06/03 10:26:55;;;;;;;3.03;2.17;;;;;;;;;;5031174;28;20022;-78
2021/06/03 10:29:21;;;;;;;4.57;3.05;;;;;;;;;;5033613;28;20089;-78
2021/06/03 10:31:56;;;;;;;2.58;2.33;;;;;;;;;;5029995;28;20030;-77
2021/06/03 10:34:22;;;;;;;3.55;2.10;;;;;;;;;;5030850;28;20014;-78
2021/06/03 10:36:48;;;;;;;2.08;1.98;;;;;;;;;;5033296;28;20041;-79
2021/06/03 10:39:14;;;;;;;2.25;2.05;;;;;;;;;;5021481;28;20029;-79
2021/06/03 10:41:40;;;;;;;2.38;2.28;;;;;;;;;;5018091;28;20061;-79
2021/06/03 10:44:07;;;;;;;2.47;2.33;;;;;;;;;;5017963;28;20121;-79
2021/06/03 10:46:34;;;;;;;2.42;2.22;;;;;;;;;;5017597;28;20028;-77
2021/06/03 10:49:01;;;;;;;2.22;2.03;;;;;;;;;;5016692;28;20022;-78
2021/06/03 10:51:27;;;;;;;2.30;2.00;;;;;;;;;;5015660;28;20037;-78
2021/06/03 10:53:53;;;;;;;3.13;2.50;;;;;;;;;;5016746;28;20438;-78
2021/06/03 10:56:26;;;;;;;3.50;2.63;;;;;;;;;;5020007;28;20054;-77
2021/06/03 10:58:53;;;;;;;2.78;2.55;;;;;;;;;;5021535;28;20046;-78
2021/06/03 11:01:20;;;;;;;2.67;1.90;;;;;;;;;;5016564;28;20026;-77
2021/06/03 11:03:47;;;;;;;3.03;2.22;;;;;;;;;;5014974;28;20030;-77
2021/06/03 11:06:17;;;;;;;3.13;2.60;;;;;;;;;;5015240;28;20026;-77
2021/06/03 11:08:46;;;;;;;3.17;2.30;;;;;;;;;;5017885;28;20137;-76
2021/06/03 11:11:13;;;;;;;2.50;2.30;;;;;;;;;;5018043;28;20475;-79
2021/06/03 11:13:59;;;;;;;4.00;2.50;;;;;;;;;;5021697;28;20025;-78
2021/06/03 11:16:26;;;;;;;2.55;2.35;;;;;;;;;;5020494;28;20025;-77
2021/06/03 11:18:58;;;;;;;2.25;2.08;;;;;;;;;;5021958;28;20113;-77
2021/06/03 11:21:24;;;;;;;;;;;;;;;;;;5022843;28;20076;-77
2021/06/03 11:23:50;;;;;;;2.47;2.28;;;;;;;;;;5022731;28;19909;-77
2021/06/03 11:26:34;;;;;;;3.92;2.47;;;;;;;;;;5024147;28;20098;-77
2021/06/03 11:29:10;;;;;;;3.47;2.72;;;;;;;;;;5021614;28;20057;-78
2021/06/03 11:31:37;;;;;;;3.38;2.65;;;;;;;;;;5022568;28;20022;-78
2021/06/03 11:34:10;;;;;;;7.43;2.95;;;;;;;;;;5022891;28;20041;-78
2021/06/03 11:36:37;;;;;;;3.63;3.28;;;;;;;;;;5021056;28;20029;-77
2021/06/03 11:39:05;;;;;;;3.15;2.95;;;;;;;;;;5021815;28;20026;-77
2021/06/03 11:41:38;;;;;;;3.47;2.88;;;;;;;;;;5019864;28;20052;-77
2021/06/03 11:44:14;;;;;;;3.67;3.22;;;;;;;;;;5019382;28;20026;-77
2021/06/03 11:46:49;;;;;;;2.55;2.35;;;;;;;;;;5016480;28;20050;-78
2021/06/03 11:49:35;;;;;;;3.17;2.95;;;;;;;;;;5015652;28;20037;-78
2021/06/03 11:52:07;;;;;;;3.70;3.40;;;;;;;;;;5015457;28;20406;-78
2021/06/03 11:54:52;;;;;;;2.33;2.20;;;;;;;;;;5014577;28;20025;-76
2021/06/03 11:57:19;;;;;;;2.45;2.30;;;;;;;;;;5017584;28;20026;-78
2021/06/03 11:59:54;;;;;;;3.20;2.88;;;;;;;;;;5018479;28;20030;-78
2021/06/03 12:02:27;;;;;;;3.78;2.30;;;;;;;;;;5018591;28;20029;-79
2021/06/03 12:05:12;;;;;;;2.55;2.35;;;;;;;;;;5017377;28;20018;-78
2021/06/03 12:07:47;;;;;;;3.10;2.85;;;;;;;;;;5015872;28;20511;-78
2021/06/03 12:10:18;;;;;;;3.78;2.55;;;;;;;;;;5015640;28;20041;-78
2021/06/03 12:12:44;;;;;;;4.07;2.30;;;;;;;;;;5008642;28;20026;-77
2021/06/03 12:15:16;;;;;;;2.40;2.20;;;;;;;;;;5018595;28;20021;-77
2021/06/03 12:17:43;;;;;;;3.92;2.50;;;;;;;;;;5016132;28;20050;-79
2021/06/03 12:20:13;;;;;;;2.78;2.58;;;;;;;;;;5015638;28;20022;-77
2021/06/03 12:22:40;;;;;;;4.20;2.90;;;;;;;;;;5015070;28;20018;-77
2021/06/03 12:25:06;;;;;;;3.20;2.13;;;;;;;;;;5016379;28;20022;-78
2021/06/03 12:27:40;;;;;;;3.10;2.70;;;;;;;;;;5013486;28;20391;-77
2021/06/03 12:30:29;;;;;;;2.63;2.42;;;;;;;;;;5014853;28;20470;-78
2021/06/03 12:33:04;;;;;;;3.20;2.90;;;;;;;;;;5015916;28;20109;-77
2021/06/03 12:36:02;;;;;;;3.03;2.70;;;;;;;;;;5016596;28;20097;-79
2021/06/03 12:38:28;;;;;;;2.40;2.20;;;;;;;;;;5004737;28;20064;-78
2021/06/03 12:40:55;;;;;;;3.50;2.70;;;;;;;;;;5014112;28;20395;-77
2021/06/03 12:43:21;;;;;;;2.80;2.60;;;;;;;;;;5014162;28;20026;-78
2021/06/03 12:45:47;;;;;;;4.40;3.10;;;;;;;;;;5017287;28;20022;-78
2021/06/03 12:48:14;;;;;;;2.67;2.47;;;;;;;;;;5022507;28;20508;-77
2021/06/03 12:50:48;;;;;;;3.40;2.97;;;;;;;;;;5022689;28;20394;-78
2021/06/03 12:53:15;;;;;;;4.45;2.90;;;;;;;;;;5019866;28;20034;-79
2021/06/03 12:55:42;;;;;;;5.07;2.88;;;;;;;;;;5017574;28;20030;-79
2021/06/03 12:58:19;;;;;;;3.03;2.72;;;;;;;;;;5019055;28;20037;-78
2021/06/03 13:00:45;;;;;;;3.30;2.60;;;;;;;;;;5016482;28;20545;-79
2021/06/03 13:03:22;;;;;;;2.78;2.58;;;;;;;;;;5015422;28;20029;-78
2021/06/03 13:05:49;;;;;;;3.55;2.55;;;;;;;;;;5013347;28;20026;-77
2021/06/03 13:08:17;;;;;;;2.95;2.40;;;;;;;;;;5017363;28;20093;-77
2021/06/03 13:10:43;;;;;;;2.88;2.67;;;;;;;;;;5034985;23;20055;-80
2021/06/03 13:13:11;;;;;;;4.43;3.10;;;;;;;;;;5014543;28;20105;-81
2021/06/03 13:15:44;;;;;;;4.20;2.80;;;;;;;;;;4985418;28;20037;-81
2021/06/03 13:18:11;;;;;;;4.03;2.47;;;;;;;;;;4984996;28;20022;-81
2021/06/03 13:20:42;;;;;;;2.95;2.67;;;;;;;;;;5000157;28;20014;-81
2021/06/03 13:23:10;;;;;;;3.45;2.50;;;;;;;;;;4996205;28;20042;-80
2021/06/03 13:25:40;;;;;;;3.85;2.60;;;;;;;;;;4997010;28;20054;-80
2021/06/03 13:28:06;;;;;;;2.78;2.47;;;;;;;;;;4996568;28;20078;-81
2021/06/03 13:30:34;;;;;;;3.88;3.08;;;;;;;;;;4996161;28;20043;-81
2021/06/03 13:33:14;;;;;;;2.75;2.53;;;;;;;;;;4996827;28;20029;-82
2021/06/03 13:35:44;;;;;;;5.28;2.47;;;;;;;;;;4997458;28;20031;-80
2021/06/03 13:38:10;;;;;;;3.58;2.63;;;;;;;;;;4996635;28;20015;-80
2021/06/03 13:40:37;;;;;;;2.60;2.40;;;;;;;;;;4996951;28;20035;-81
2021/06/03 13:43:08;;;;;;;4.28;2.20;;;;;;;;;;5032512;28;20018;-81
2021/06/03 13:45:37;;;;;;;2.40;2.20;;;;;;;;;;5035686;28;20030;-79
2021/06/03 13:48:04;;;;;;;2.03;1.92;;;;;;;;;;5028890;28;20083;-82
2021/06/03 13:50:46;;;;;;;2.35;2.15;;;;;;;;;;5025218;28;20025;-81
2021/06/03 13:53:27;;;;;;;2.15;1.80;;;;;;;;;;5027266;28;20034;-81
2021/06/03 13:55:55;;;;;;;2.33;2.13;;;;;;;;;;5031327;28;20097;-83
2021/06/03 13:58:31;;;;;;;1.92;1.80;;;;;;;;;;5031348;28;20033;-81
2021/06/03 14:01:12;;;;;;;3.50;2.10;;;;;;;;;;5024715;28;20036;-80
2021/06/03 14:03:40;;;;;;;2.20;2.05;;;;;;;;;;5024186;28;20037;-80
2021/06/03 14:06:06;;;;;;;3.58;2.20;;;;;;;;;;5025268;28;20094;-83
2021/06/03 14:08:33;;;;;;;2.35;2.15;;;;;;;;;;5024757;28;20026;-82
2021/06/03 14:11:23;;;;;;;2.33;1.88;;;;;;;;;;5023863;28;20088;-82
2021/06/03 14:13:58;;;;;;;3.28;2.22;;;;;;;;;;5021014;28;20030;-81
2021/06/03 14:16:31;;;;;;;3.55;2.20;;;;;;;;;;5024342;28;20425;-81
2021/06/03 14:19:02;;;;;;;2.40;2.20;;;;;;;;;;5023724;28;20086;-81
2021/06/03 14:21:28;;;;;;;2.63;2.42;;;;;;;;;;5023112;28;20025;-82
2021/06/03 14:23:54;;;;;;;2.50;2.30;;;;;;;;;;5019590;28;20191;-81
2021/06/03 14:26:20;;;;;;;2.00;1.90;;;;;;;;;;5020457;28;20080;-81
2021/06/03 14:28:59;;;;;;;2.50;2.30;;;;;;;;;;5021567;28;20038;-81
2021/06/03 14:31:42;;;;;;;3.80;1.73;;;;;;;;;;5021487;28;20037;-81
2021/06/03 14:34:22;;;;;;;2.67;2.25;;;;;;;;;;5021407;28;20045;-81
2021/06/03 14:37:08;;;;;;;1.70;1.60;;;;;;;;;;5023132;28;20026;-81
2021/06/03 14:39:41;;;;;;;1.90;1.80;;;;;;;;;;5032119;28;20014;-81
2021/06/03 14:42:07;;;;;;;2.03;1.80;;;;;;;;;;5029617;28;20026;-80
2021/06/03 14:44:50;;;;;;;1.88;1.73;;;;;;;;;;5023112;28;20068;-81
2021/06/03 14:47:16;;;;;;;1.90;1.65;;;;;;;;;;5022694;28;20030;-81
2021/06/03 14:49:42;;;;;;;1.50;1.40;;;;;;;;;;5020189;28;20053;-81
2021/06/03 14:52:08;;;;;;;4.85;2.47;;;;;;;;;;5020112;28;20061;-81
2021/06/03 14:54:34;;;;;;;2.10;1.92;;;;;;;;;;5021590;28;20081;-82
2021/06/03 14:57:00;;;;;;;2.10;1.88;;;;;;;;;;5020586;28;20104;-81